Flight Track Log - Related Links

Times and Time Zones

All times are in EDT time to prevent confusion due to time zone crossing. See the N54LV flight status page for this flight to view local times or setup timezone preferences in your user account.

Time Position Orientation Groundspeed Altitude Reporting Facility
EDT Latitude Longitude Course Direction KTS MPH feet Rate Location/Type
Wed 04:55:30 PM 36.7686 -81.7272 66° East 148 170 3,500  Level Atlanta Center
Wed 04:56:30 PM 36.7844 -81.6828 66° East 148 170 3,500  Level Atlanta Center
Wed 04:57:30 PM 36.7861 -81.6722 79° East 148 170 3,500  Level Atlanta Center
Wed 04:58:30 PM 36.7861 -81.6722 302° West 148 170 3,500  Level Atlanta Center
Wed 05:00:30 PM 36.7861 -81.6722 302° West 148 170 3,500 433 Level Atlanta Center
Wed 05:01:30 PM 36.8528 -81.4575 69° East 151 174 4,800 900 Climbing Atlanta Center
Wed 05:02:30 PM 36.8686 -81.4156 65° Northeast 145 167 5,300 250 Climbing Atlanta Center
Wed 05:03:30 PM 36.8842 -81.3683 68° East 145 167 5,300 100 Level Atlanta Center
Wed 05:04:30 PM 36.8997 -81.3158 70° East 145 167 5,500  Climbing Atlanta Center
Wed 05:05:30 PM 36.9153 -81.2633 70° East 145 167 5,300 -50 Descending Atlanta Center
Wed 05:06:30 PM 36.9331 -81.2186 64° Northeast 150 173 5,400  Climbing Atlanta Center
Wed 05:07:30 PM 36.9486 -81.1661 70° East 150 173 5,300  Descending Atlanta Center
Wed 05:08:30 PM 36.9642 -81.1267 64° Northeast 150 173 5,400 100 Climbing Atlanta Center
Wed 05:09:30 PM 36.9819 -81.0819 64° Northeast 150 173 5,500  Climbing Atlanta Center
Wed 05:10:30 PM 36.9994 -81.0319 66° East 144 166 5,400 -100 Descending Atlanta Center
Wed 05:11:30 PM 37.0192 -80.9842 63° Northeast 144 166 5,300 -600 Descending Atlanta Center
Wed 05:12:30 PM 37.0386 -80.9314 65° Northeast 149 171 4,200 -900 Descending Atlanta Center
Wed 05:13:30 PM 37.0583 -80.8839 63° Northeast 149 171 3,500 -500 Descending Atlanta Center
Wed 05:14:30 PM 37.0758 -80.8389 64° Northeast 144 166 3,200 -200 Descending Atlanta Center
Wed 05:15:30 PM 37.0894 -80.7969 68° East 144 166 3,100 50 Descending Atlanta Center
Wed 05:16:30 PM 37.1047 -80.7494 68° East 144 166 3,300 200 Climbing Atlanta Center
Wed 05:17:30 PM 37.1222 -80.7017 65° Northeast 144 166 3,500 150 Climbing Atlanta Center
Wed 05:18:30 PM 37.1356 -80.6517 71° East 144 166 3,600 50 Climbing Atlanta Center
Wed 05:19:30 PM 37.1528 -80.5989 68° East 149 171 3,600 50 Level Atlanta Center
Wed 05:20:30 PM 37.1661 -80.5514 71° East 149 171 3,700 -150 Climbing Atlanta Center
Wed 05:21:30 PM 37.1833 -80.4986 68° East 154 177 3,300 -350 Descending Atlanta Center
Wed 05:22:30 PM 37.1944 -80.4486 74° East 154 177 3,000 -350 Descending Atlanta Center
Wed 05:23:30 PM 37.1972 -80.4067 85° East 142 163 2,600 -400 Descending Atlanta Center
Wed 05:25:00 PM 37.2000 -80.4000 90° East  Level FlightAware Approximate
Wed 05:32:00 PM 37.2076 -80.4078 90° East  Level Estimated
Wed 05:33:00 PM 37.2076 -80.4078 90° East  Level Estimated
Wed 05:34:00 PM 37.2076 -80.4078 90° East  Level Estimated
Wed 05:35:00 PM 37.2076 -80.4078 90° East  Level Estimated
Wed 05:36:00 PM 37.2076 -80.4078 90° East  Level Estimated
Wed 05:37:00 PM 37.2076 -80.4078 90° East  Level Estimated

Login

Don't have an account? Register now (free) for customized features, flight alerts, and more!